Time;durP1;ratioP1;P1;durP2;ratioP2;P2;SDS_P1;SDS_P2;PMS_P1;PMS_P2;Temp;Humidity;BMP_temperature;BMP_pressure;BME280_temperature;BME280_humidity;BME280_pressure;Samples;Min_cycle;Max_cycle;Signal;HPM_P1;HPM_P2
2022/06/17 00:01:22;;;;;;;5.30;4.33;;;;;;;15.53;100.00;99636.97;5051657;28;20182;-83
2022/06/17 00:03:49;;;;;;;5.30;4.73;;;;;;;15.49;100.00;99640.41;5051470;28;20643;-82
2022/06/17 00:06:16;;;;;;;5.10;4.43;;;;;;;15.65;100.00;99634.13;5045098;28;20183;-83
2022/06/17 00:08:44;;;;;;;4.90;4.50;;;;;;;15.58;100.00;99636.22;5032935;28;20210;-84
2022/06/17 00:11:17;;;;;;;7.07;4.80;;;;;;;15.51;100.00;99633.69;5032744;28;20182;-82
2022/06/17 00:13:44;;;;;;;4.90;4.50;;;;;;;15.53;100.00;99634.28;5032818;28;20221;-82
2022/06/17 00:16:12;;;;;;;4.70;4.30;;;;;;;15.50;100.00;99633.91;5033212;28;20218;-83
2022/06/17 00:18:39;;;;;;;5.30;4.80;;;;;;;15.49;100.00;99630.41;5032724;28;20182;-83
2022/06/17 00:21:06;;;;;;;5.13;4.73;;;;;;;15.47;100.00;99635.25;5032935;28;20214;-83
2022/06/17 00:23:33;;;;;;;5.23;4.50;;;;;;;15.46;100.00;99639.00;5031740;28;20229;-83
2022/06/17 00:26:00;;;;;;;6.03;4.47;;;;;;;15.45;100.00;99637.38;5031724;28;20776;-82
2022/06/17 00:28:28;;;;;;;5.97;4.70;;;;;;;15.48;100.00;99649.56;5030645;28;20545;-83
2022/06/17 00:30:54;;;;;;;5.53;4.90;;;;;;;15.46;100.00;99639.00;5012275;28;20223;-84
2022/06/17 00:33:21;;;;;;;5.20;4.70;;;;;;;15.43;100.00;99639.53;5036677;28;20194;-84
2022/06/17 00:35:54;;;;;;;4.97;4.47;;;;;;;15.44;100.00;99647.34;5052746;28;20201;-83
2022/06/17 00:38:24;;;;;;;5.50;5.00;;;;;;;15.40;100.00;99646.22;5034966;28;20174;-82
2022/06/17 00:40:52;;;;;;;5.17;4.77;;;;;;;15.38;100.00;99645.66;5021047;28;20263;-82
2022/06/17 00:43:30;;;;;;;5.90;4.93;;;;;;;15.35;100.00;99639.97;5028052;28;20677;-83
2022/06/17 00:46:11;;;;;;;4.80;4.50;;;;;;;15.33;100.00;99636.69;5045199;28;20249;-83
2022/06/17 00:48:47;;;;;;;4.93;4.53;;;;;;;15.33;100.00;99639.38;5028124;28;20199;-83
2022/06/17 00:51:19;;;;;;;6.43;4.90;;;;;;;15.29;100.00;99636.38;5044520;28;20182;-83
2022/06/17 00:53:51;;;;;;;6.03;5.20;;;;;;;15.27;100.00;99638.50;5044547;28;20238;-82
2022/06/17 00:56:21;;;;;;;5.23;4.67;;;;;;;15.22;100.00;99634.91;5044467;28;20713;-83
2022/06/17 00:59:10;;;;;;;6.07;4.90;;;;;;;15.19;100.00;99633.53;5044196;28;20254;-83
2022/06/17 01:01:59;;;;;;;4.70;4.40;;;;;;;15.12;100.00;99643.69;5011710;28;20858;-83
2022/06/17 01:04:35;;;;;;;5.20;4.80;;;;;;;15.11;100.00;99649.34;5047585;28;20245;-82
2022/06/17 01:07:24;;;;;;;5.17;4.80;;;;;;;15.07;100.00;99654.41;5016408;28;20172;-82
2022/06/17 01:09:57;;;;;;;5.30;4.80;;;;;;;15.02;100.00;99658.94;5015414;28;20218;-82
2022/06/17 01:12:37;;;;;;;5.37;4.87;;;;;;;15.00;100.00;99664.56;5016878;28;20163;-82
2022/06/17 01:15:06;;;;;;;5.23;4.80;;;;;;;14.96;100.00;99666.94;5021705;28;20186;-82
2022/06/17 01:17:37;;;;;;;5.53;4.90;;;;;;;14.89;100.00;99668.97;5035236;28;20199;-84
2022/06/17 01:20:09;;;;;;;5.37;4.80;;;;;;;14.85;100.00;99672.41;5018689;28;20191;-82
2022/06/17 01:22:39;;;;;;;5.53;5.13;;;;;;;14.81;100.00;99674.78;5035396;28;20198;-82
2022/06/17 01:25:18;;;;;;;5.53;5.03;;;;;;;14.82;100.00;99670.22;5034830;28;20187;-83
2022/06/17 01:28:10;;;;;;;5.40;5.00;;;;;;;14.77;100.00;99668.25;5035695;28;20285;-83
2022/06/17 01:30:50;;;;;;;5.83;5.23;;;;;;;14.71;100.00;99668.41;5015670;28;20187;-83
2022/06/17 01:33:29;;;;;;;6.00;5.50;;;;;;;14.69;100.00;99682.16;5031339;28;20167;-84
2022/06/17 01:36:15;;;;;;;6.10;5.60;;;;;;;14.63;100.00;99683.13;5001808;28;20198;-82
2022/06/17 01:38:45;;;;;;;6.07;5.57;;;;;;;14.62;100.00;99688.75;5054627;28;20197;-82
2022/06/17 01:41:14;;;;;;;6.00;5.50;;;;;;;14.59;100.00;99700.03;5055936;28;20255;-83
2022/06/17 01:43:55;;;;;;;5.97;5.47;;;;;;;14.54;100.00;99693.50;5054508;28;20764;-85
2022/06/17 01:46:38;;;;;;;7.27;5.27;;;;;;;14.50;100.00;99691.53;5015160;28;20213;-82
2022/06/17 01:49:25;;;;;;;6.00;5.40;;;;;;;14.46;100.00;99680.41;5014593;28;20195;-84
2022/06/17 01:52:08;;;;;;;7.30;5.90;;;;;;;14.47;100.00;99683.91;5015444;28;20241;-82
2022/06/17 01:54:41;;;;;;;6.07;5.53;;;;;;;14.38;100.00;99680.00;4998278;28;20218;-81
2022/06/17 01:57:09;;;;;;;6.10;5.53;;;;;;;14.34;100.00;99684.19;4997702;28;20294;-83
2022/06/17 01:59:42;;;;;;;6.50;5.63;;;;;;;14.34;100.00;99686.91;4997434;28;20196;-81
2022/06/17 02:02:13;;;;;;;6.57;5.80;;;;;;;14.33;100.00;99690.63;4997490;28;20712;-82
2022/06/17 02:04:46;;;;;;;6.80;6.17;;;;;;;14.31;100.00;99690.91;4998189;28;20223;-82
2022/06/17 02:07:19;;;;;;;7.17;6.47;;;;;;;14.27;100.00;99689.75;5016536;28;20186;-81
2022/06/17 02:09:46;;;;;;;6.57;5.97;;;;;;;14.25;100.00;99682.97;5034607;28;20202;-81
2022/06/17 02:12:16;;;;;;;6.43;5.83;;;;;;;14.21;100.00;99679.13;5032983;28;20198;-81
2022/06/17 02:14:49;;;;;;;7.87;5.80;;;;;;;14.19;100.00;99684.72;5032486;28;20194;-81
2022/06/17 02:17:32;;;;;;;6.40;5.83;;;;;;;14.16;100.00;99693.31;5032870;28;20199;-81
2022/06/17 02:20:19;;;;;;;6.63;6.13;;;;;;;14.16;100.00;99701.41;5033368;28;20197;-81
2022/06/17 02:22:46;;;;;;;6.73;6.17;;;;;;;14.11;100.00;99699.44;5016854;28;20657;-81
2022/06/17 02:25:19;;;;;;;6.03;5.63;;;;;;;14.10;100.00;99705.88;5033559;28;20558;-81
2022/06/17 02:27:51;;;;;;;6.37;5.87;;;;;;;14.06;100.00;99696.63;5049234;28;20217;-81
2022/06/17 02:30:18;;;;;;;6.70;6.10;;;;;;;14.08;100.00;99701.78;5065528;28;20182;-81
2022/06/17 02:32:46;;;;;;;6.50;5.97;;;;;;;14.03;100.00;99702.50;5065700;28;20186;-81
2022/06/17 02:35:27;;;;;;;7.10;6.37;;;;;;;14.01;100.00;99698.41;5033933;28;20214;-81
2022/06/17 02:37:54;;;;;;;7.03;6.43;;;;;;;14.02;100.00;99700.88;5033071;28;20170;-81
2022/06/17 02:40:31;;;;;;;7.60;7.00;;;;;;;13.97;100.00;99694.56;5032550;28;20198;-81
2022/06/17 02:42:59;;;;;;;7.80;7.03;;;;;;;13.98;100.00;99697.03;5049590;28;20194;-81
2022/06/17 02:45:30;;;;;;;7.13;6.63;;;;;;;13.96;100.00;99696.44;5016354;28;20197;-81
2022/06/17 02:47:58;;;;;;;7.60;6.87;;;;;;;13.98;100.00;99696.19;5016730;28;20198;-81
2022/06/17 02:50:26;;;;;;;7.70;6.97;;;;;;;13.99;100.00;99705.94;5032839;28;20194;-81
2022/06/17 02:52:55;;;;;;;7.20;6.60;;;;;;;14.00;100.00;99712.94;5016117;28;20278;-80
2022/06/17 02:55:35;;;;;;;7.27;6.57;;;;;;;13.98;100.00;99713.19;5015978;28;20200;-81
2022/06/17 02:58:22;;;;;;;7.30;6.60;;;;;;;14.00;100.00;99707.53;4999561;28;20174;-80
2022/06/17 03:00:51;;;;;;;7.37;6.67;;;;;;;14.02;100.00;99708.94;5016073;28;20240;-80
2022/06/17 03:03:19;;;;;;;6.73;6.17;;;;;;;14.04;100.00;99714.09;5032157;28;20268;-80
2022/06/17 03:05:46;;;;;;;6.77;6.07;;;;;;;14.06;100.00;99707.41;5015741;28;20195;-80
2022/06/17 03:08:22;;;;;;;6.47;6.00;;;;;;;14.07;100.00;99706.34;5015872;28;20231;-80
2022/06/17 03:10:52;;;;;;;7.20;6.50;;;;;;;14.10;100.00;99700.47;5016123;28;20217;-80
2022/06/17 03:13:23;;;;;;;6.93;6.33;;;;;;;14.15;100.00;99715.09;5032289;28;20255;-80
2022/06/17 03:15:52;;;;;;;6.67;6.17;;;;;;;14.19;100.00;99714.38;5015837;28;20202;-81
2022/06/17 03:18:20;;;;;;;7.27;6.67;;;;;;;14.24;100.00;99716.34;5015571;28;20297;-81
2022/06/17 03:20:48;;;;;;;7.13;6.53;;;;;;;14.27;100.00;99707.81;4999658;28;20198;-81
2022/06/17 03:23:20;;;;;;;6.63;6.03;;;;;;;14.33;100.00;99713.03;5048247;28;20218;-81
2022/06/17 03:25:56;;;;;;;7.40;5.90;;;;;;;14.37;100.00;99708.03;5031307;28;20703;-81
2022/06/17 03:28:43;;;;;;;6.33;5.73;;;;;;;14.41;100.00;99715.38;5015923;28;20241;-82
2022/06/17 03:31:16;;;;;;;6.53;5.93;;;;;;;14.47;100.00;99718.97;5015887;28;20235;-81
2022/06/17 03:33:49;;;;;;;6.67;6.07;;;;;;;14.55;100.00;99718.59;5032074;28;20644;-81
2022/06/17 03:36:25;;;;;;;6.57;6.03;;;;;;;14.62;100.00;99721.13;5015648;28;20229;-81
2022/06/17 03:38:56;;;;;;;6.47;5.87;;;;;;;14.71;100.00;99733.94;5015412;28;20295;-81
2022/06/17 03:41:32;;;;;;;6.77;6.13;;;;;;;14.80;100.00;99726.28;5031475;28;20309;-80
2022/06/17 03:44:20;;;;;;;6.60;5.97;;;;;;;14.84;100.00;99741.72;5031609;28;20220;-80
2022/06/17 03:46:52;;;;;;;6.67;6.07;;;;;;;14.87;100.00;99738.56;5015760;28;20233;-81
2022/06/17 03:49:51;;;;;;;7.00;6.50;;;;;;;14.90;100.00;99748.84;5015579;28;20191;-82
2022/06/17 03:52:39;;;;;;;6.37;5.77;;;;;;;14.93;100.00;99753.75;5004380;28;20186;-82
2022/06/17 03:55:18;;;;;;;6.60;6.07;;;;;;;14.94;100.00;99754.56;5016470;28;20198;-82
2022/06/17 03:57:48;;;;;;;6.67;6.17;;;;;;;14.98;100.00;99755.69;5015421;28;20229;-83
2022/06/17 04:00:42;;;;;;;6.90;6.30;;;;;;;14.97;100.00;99760.31;5015927;28;20290;-83
2022/06/17 04:03:13;;;;;;;6.73;6.20;;;;;;;14.98;100.00;99755.69;5008608;28;20664;-82
2022/06/17 04:05:42;;;;;;;6.70;6.10;;;;;;;14.96;100.00;99764.06;5015404;28;20460;-82
2022/06/17 04:08:10;;;;;;;8.00;6.17;;;;;;;14.95;100.00;99759.72;5031779;28;20202;-83
2022/06/17 04:10:38;;;;;;;6.80;6.30;;;;;;;14.93;100.00;99764.53;5031687;28;20582;-82
2022/06/17 04:13:05;;;;;;;6.73;6.17;;;;;;;14.92;100.00;99773.72;5015424;28;20198;-83
2022/06/17 04:15:55;;;;;;;6.57;6.03;;;;;;;14.91;100.00;99771.25;5012511;28;20195;-83
2022/06/17 04:18:23;;;;;;;7.03;6.33;;;;;;;14.91;100.00;99772.06;5007599;28;20214;-83
2022/06/17 04:20:54;;;;;;;6.80;6.17;;;;;;;14.91;100.00;99768.53;5048230;28;20187;-83
2022/06/17 04:23:26;;;;;;;7.37;6.77;;;;;;;14.94;100.00;99781.53;5031475;28;20195;-83
2022/06/17 04:26:29;;;;;;;7.07;6.37;;;;;;;14.90;100.00;99775.81;5029502;28;20194;-81
2022/06/17 04:28:59;;;;;;;7.10;6.50;;;;;;;14.92;100.00;99780.97;5031821;28;20190;-83
2022/06/17 04:31:32;;;;;;;7.20;6.67;;;;;;;14.99;100.00;99790.53;5016060;28;20208;-82
2022/06/17 04:34:14;;;;;;;7.30;6.70;;;;;;;15.11;100.00;99793.19;5031403;28;20587;-83
2022/06/17 04:37:02;;;;;;;7.43;6.83;;;;;;;15.33;100.00;99783.28;5032578;28;20198;-83
2022/06/17 04:39:48;;;;;;;6.87;6.27;;;;;;;15.98;100.00;99788.00;5017119;28;20198;-84
2022/06/17 04:42:45;;;;;;;6.67;6.07;;;;;;;16.76;100.00;99788.63;5023016;28;20221;-84
2022/06/17 04:45:17;;;;;;;7.40;6.70;;;;;;;17.29;100.00;99791.25;5031356;28;20217;-84
2022/06/17 04:47:45;;;;;;;6.73;6.03;;;;;;;17.80;100.00;99787.00;5031322;28;20190;-83
2022/06/17 04:50:18;;;;;;;6.80;5.90;;;;;;;18.22;100.00;99792.38;5015556;28;20194;-84
2022/06/17 04:52:48;;;;;;;6.27;5.77;;;;;;;18.69;100.00;99796.88;4999000;28;20285;-84
2022/06/17 04:55:36;;;;;;;6.53;5.93;;;;;;;19.07;100.00;99806.44;5032274;28;20181;-84
2022/06/17 04:58:16;;;;;;;6.60;5.90;;;;;;;19.27;100.00;99812.66;5000572;28;20186;-84
2022/06/17 05:00:51;;;;;;;6.07;5.50;;;;;;;19.69;100.00;99817.03;5000059;28;20283;-83
2022/06/17 05:03:28;;;;;;;5.93;5.43;;;;;;;19.87;100.00;99821.06;5001021;28;20205;-82
2022/06/17 05:06:13;;;;;;;6.33;5.70;;;;;;;20.09;100.00;99829.69;5000819;28;20187;-84
2022/06/17 05:08:45;;;;;;;5.87;5.37;;;;;;;20.11;100.00;99824.81;5012847;28;20200;-84
2022/06/17 05:11:19;;;;;;;9.47;5.70;;;;;;;20.12;100.00;99820.97;5015547;28;20214;-84
2022/06/17 05:14:14;;;;;;;7.90;5.33;;;;;;;20.01;100.00;99831.09;5036678;28;20228;-83
2022/06/17 05:16:43;;;;;;;5.70;5.20;;;;;;;19.74;100.00;99828.69;4995346;28;20195;-84
2022/06/17 05:19:10;;;;;;;5.90;5.30;;;;;;;19.91;100.00;99836.53;5018811;28;20200;-83
2022/06/17 05:21:37;;;;;;;5.73;5.17;;;;;;;19.98;100.00;99834.34;5051841;28;20225;-84
2022/06/17 05:24:11;;;;;;;6.23;5.73;;;;;;;20.25;100.00;99844.84;5051499;28;20211;-84
2022/06/17 05:26:38;;;;;;;5.83;5.23;;;;;;;20.27;100.00;99842.69;5035649;28;20191;-84
2022/06/17 05:29:08;;;;;;;5.90;5.30;;;;;;;20.20;100.00;99853.06;5051528;28;20190;-84
2022/06/17 05:31:39;;;;;;;5.60;5.07;;;;;;;20.34;100.00;99856.03;5021068;28;20195;-84
2022/06/17 05:34:06;;;;;;;6.63;5.23;;;;;;;20.46;100.00;99843.72;5051598;28;20242;-84
2022/06/17 05:36:34;;;;;;;5.80;5.20;;;;;;;20.65;100.00;99847.44;5035349;28;20259;-83
2022/06/17 05:39:01;;;;;;;5.50;5.00;;;;;;;20.55;100.00;99842.03;5051658;28;20211;-83
2022/06/17 05:41:28;;;;;;;5.67;5.17;;;;;;;20.73;100.00;99843.31;5035127;28;20269;-84
2022/06/17 05:43:55;;;;;;;5.60;5.00;;;;;;;20.87;100.00;99841.59;5035292;28;20204;-84
2022/06/17 05:46:31;;;;;;;6.27;5.10;;;;;;;20.97;100.00;99846.16;5021402;28;20191;-84
2022/06/17 05:49:17;;;;;;;6.20;5.23;;;;;;;20.80;100.00;99851.19;5054409;28;20235;-84
2022/06/17 05:52:06;;;;;;;6.47;4.27;;;;;;;20.84;100.00;99858.50;5055285;28;20187;-84
2022/06/17 05:54:59;;;;;;;5.77;5.27;;;;;;;20.84;100.00;99861.22;5055605;28;20203;-85
2022/06/17 05:57:26;;;;;;;4.90;4.50;;;;;;;20.89;100.00;99863.09;5037955;28;20187;-83
2022/06/17 05:59:54;;;;;;;6.90;4.80;;;;;;;20.54;100.00;99877.69;5021864;28;20254;-83
2022/06/17 06:02:22;;;;;;;6.97;5.07;;;;;;;20.33;100.00;99874.25;5054366;28;20200;-84
2022/06/17 06:05:05;;;;;;;6.97;5.07;;;;;;;20.35;100.00;99872.06;5039025;28;20245;-83
2022/06/17 06:07:36;;;;;;;5.63;5.13;;;;;;;20.36;100.00;99870.16;5005196;28;20213;-82
2022/06/17 06:10:03;;;;;;;6.73;5.13;;;;;;;20.22;100.00;99875.34;5022698;28;20229;-85
2022/06/17 06:15:18;;;;;;;5.97;5.13;;;;;;;20.54;100.00;99883.97;5041415;28;20642;-83
2022/06/17 06:18:06;;;;;;;5.60;5.07;;;;;;;20.76;100.00;99894.50;5040629;28;20672;-83
2022/06/17 06:20:33;;;;;;;5.67;5.00;;;;;;;20.83;100.00;99891.44;5038311;28;20187;-83
2022/06/17 06:22:59;;;;;;;5.67;5.00;;;;;;;21.00;100.00;99898.16;5037721;28;20209;-82
2022/06/17 06:25:26;;;;;;;6.30;5.13;;;;;;;21.21;100.00;99904.34;5021589;28;20211;-84
2022/06/17 06:27:55;;;;;;;5.30;4.80;;;;;;;21.37;100.00;99908.56;5054468;28;20198;-84
2022/06/17 06:30:29;;;;;;;5.43;4.93;;;;;;;21.47;100.00;99900.31;5037904;28;20206;-83
2022/06/17 06:32:58;;;;;;;6.97;4.87;;;;;;;21.76;100.00;99913.16;5036638;28;20283;-83
2022/06/17 06:35:33;;;;;;;4.90;4.50;;;;;;;21.85;100.00;99906.81;5021149;28;20220;-83
2022/06/17 06:38:03;;;;;;;5.53;5.03;;;;;;;22.06;100.00;99917.56;5036167;28;20193;-83
2022/06/17 06:40:30;;;;;;;5.30;4.90;;;;;;;22.07;100.00;99916.47;5036442;28;20197;-83
2022/06/17 06:42:57;;;;;;;5.10;4.70;;;;;;;22.07;100.00;99914.53;5054163;28;20201;-83
2022/06/17 06:46:08;;;;;;;6.50;4.87;;;;;;;21.92;100.00;99920.94;4994918;28;20213;-84
2022/06/17 06:48:44;;;;;;;5.17;4.67;;;;;;;22.11;100.00;99922.97;5008916;28;20275;-83
2022/06/17 06:51:11;;;;;;;5.50;5.00;;;;;;;21.99;100.00;99912.44;5016107;28;20221;-84
2022/06/17 06:53:37;;;;;;;5.00;4.57;;;;;;;22.31;100.00;99915.38;5032587;28;20194;-83
2022/06/17 06:56:05;;;;;;;5.33;4.80;;;;;;;22.20;100.00;99913.06;5032472;28;20197;-83
2022/06/17 06:58:35;;;;;;;5.20;4.80;;;;;;;22.33;100.00;99909.63;5012678;28;20200;-83
2022/06/17 07:01:03;;;;;;;4.80;4.30;;;;;;;22.22;100.00;99910.84;5017980;28;20199;-83
2022/06/17 07:03:30;;;;;;;7.60;4.70;;;;;;;22.37;100.00;99914.22;5016345;28;20203;-83
2022/06/17 07:06:01;;;;;;;5.27;4.70;;;;;;;22.42;100.00;99923.47;5030838;28;20196;-83
2022/06/17 07:08:30;;;;;;;5.10;4.70;;;;;;;22.48;100.00;99922.31;5032406;28;20203;-83
2022/06/17 07:10:59;;;;;;;5.43;4.60;;;;;;;22.59;100.00;99927.34;5032625;28;20206;-83
2022/06/17 07:13:31;;;;;;;4.90;4.40;;;;;;;22.77;100.00;99929.31;5048651;28;20197;-82
2022/06/17 07:15:59;;;;;;;6.60;4.90;;;;;;;22.63;100.00;99922.13;5033621;28;20204;-83
2022/06/17 07:18:31;;;;;;;4.63;4.30;;;;;;;22.72;99.40;99934.06;5032265;28;20184;-83
2022/06/17 07:21:07;;;;;;;5.33;4.67;;;;;;;22.69;100.00;99931.88;5032378;28;20243;-82
2022/06/17 07:23:44;;;;;;;5.27;4.50;;;;;;;22.63;98.71;99942.03;5048913;28;20256;-82
2022/06/17 07:26:13;;;;;;;6.50;4.83;;;;;;;22.41;100.00;99941.75;5032163;28;20222;-83
2022/06/17 07:28:40;;;;;;;5.70;5.20;;;;;;;22.68;99.10;99931.06;5016139;28;20221;-83
2022/06/17 07:31:07;;;;;;;5.03;4.60;;;;;;;22.68;100.00;99935.69;5015743;28;20202;-82
2022/06/17 07:33:34;;;;;;;5.10;4.70;;;;;;;22.69;100.00;99935.41;5015775;28;20188;-82
2022/06/17 07:36:03;;;;;;;5.30;4.87;;;;;;;22.74;100.00;99938.13;5031758;28;20203;-83
2022/06/17 07:41:24;;;;;;;5.43;4.87;;;;;;;23.08;99.72;99939.88;5032780;28;20657;-82
2022/06/17 07:43:52;;;;;;;5.47;5.07;;;;;;;23.00;94.44;99937.81;5032755;28;20194;-82
2022/06/17 07:46:22;;;;;;;6.30;4.97;;;;;;;23.03;96.04;99935.28;5031784;28;20210;-83
2022/06/17 07:48:50;;;;;;;6.17;5.27;;;;;;;23.10;96.75;99940.38;5015443;28;20225;-82
2022/06/17 07:51:16;;;;;;;5.87;5.43;;;;;;;23.38;93.67;99942.16;5015240;28;20640;-83
2022/06/17 07:53:43;;;;;;;6.13;5.20;;;;;;;23.50;89.88;99939.81;5034741;28;20227;-83
2022/06/17 07:56:13;;;;;;;5.77;5.23;;;;;;;23.26;96.33;99945.34;5032263;28;20252;-84
2022/06/17 07:58:39;;;;;;;5.40;4.90;;;;;;;23.53;94.17;99946.59;5032516;28;20213;-83
2022/06/17 08:01:07;;;;;;;5.40;4.90;;;;;;;23.82;88.08;99946.41;5011496;28;20230;-83
2022/06/17 08:03:34;;;;;;;5.90;5.40;;;;;;;23.66;88.73;99949.41;5008462;28;20262;-82
2022/06/17 08:06:02;;;;;;;5.70;5.20;;;;;;;;;;5032389;28;20203;-83
2022/06/17 08:08:30;;;;;;;5.57;5.07;;;;;;;23.92;88.62;99958.00;5031174;28;20230;-83
2022/06/17 08:10:59;;;;;;;5.53;4.83;;;;;;;24.10;88.64;99956.34;5028156;28;20195;-83
2022/06/17 08:13:26;;;;;;;5.35;4.90;;;;;;;24.34;83.64;99956.22;5014285;28;20244;-81
2022/06/17 08:15:56;;;;;;;5.30;4.80;;;;;;;24.27;80.20;99953.84;5031320;28;20240;-82
2022/06/17 08:18:24;;;;;;;6.15;4.93;;;;;;;24.04;80.03;99963.00;5031197;28;20249;-82
2022/06/17 08:20:51;;;;;;;5.20;4.68;;;;;;;24.05;80.53;99962.72;5032302;28;20187;-82
2022/06/17 08:23:18;;;;;;;7.57;4.40;;;;;;;24.44;81.38;99962.31;5031809;28;20182;-81
2022/06/17 08:25:45;;;;;;;5.07;4.50;;;;;;;24.77;81.38;99971.25;4998410;28;20218;-81
2022/06/17 08:28:14;;;;;;;5.20;4.85;;;;;;;24.43;76.08;99963.41;5014326;28;20195;-82
2022/06/17 08:30:44;;;;;;;5.35;4.78;;;;;;;23.92;82.34;99970.88;5014415;28;20257;-82
2022/06/17 08:33:11;;;;;;;6.30;4.78;;;;;;;24.07;80.27;99967.88;5031004;28;20213;-82
2022/06/17 08:36:04;;;;;;;6.32;4.80;;;;;;;24.51;79.41;99970.94;5032214;28;20299;-82
2022/06/17 08:38:34;;;;;;;4.95;4.55;;;;;;;24.83;76.37;99964.53;5030644;28;20233;-81
2022/06/17 08:41:26;;;;;;;5.15;4.57;;;;;;;24.74;76.51;99971.03;5030447;28;20284;-81
2022/06/17 08:44:17;;;;;;;5.55;4.78;;;;;;;24.43;76.43;99974.38;5031547;28;20611;-82
2022/06/17 08:46:59;;;;;;;5.85;5.10;;;;;;;24.65;74.28;99970.94;5030627;28;20233;-82
2022/06/17 08:49:43;;;;;;;5.55;5.05;;;;;;;24.74;74.65;99976.50;5012492;28;20588;-84
2022/06/17 08:52:29;;;;;;;5.38;4.85;;;;;;;24.52;72.90;99972.56;5010791;28;20195;-81
2022/06/17 08:55:24;;;;;;;7.80;4.80;;;;;;;24.53;71.89;99971.44;5013621;28;20818;-82
2022/06/17 08:58:29;;;;;;;6.93;4.88;;;;;;;24.17;78.30;99973.19;5031296;28;20195;-82
2022/06/17 09:01:12;;;;;;;5.53;4.32;;;;;;;24.63;77.52;99981.41;5024549;28;20263;-82
2022/06/17 09:03:58;;;;;;;6.35;4.63;;;;;;;24.53;70.86;99987.06;5030748;28;20652;-82
2022/06/17 09:06:25;;;;;;;5.80;4.88;;;;;;;24.55;69.29;99982.06;5014256;28;20194;-82
2022/06/17 09:08:58;;;;;;;5.15;4.65;;;;;;;24.91;72.93;99982.25;5031971;28;20190;-82
2022/06/17 09:11:49;;;;;;;4.70;4.30;;;;;;;25.34;69.89;99991.69;5030273;28;20194;-82
2022/06/17 09:14:31;;;;;;;6.03;5.22;;;;;;;25.32;67.04;99990.38;5030185;28;20535;-81
2022/06/17 09:17:25;;;;;;;5.18;4.40;;;;;;;24.98;72.16;99990.84;5030447;28;20213;-82
2022/06/17 09:19:55;;;;;;;6.40;4.45;;;;;;;25.06;63.84;99992.03;5031309;28;20736;-82
2022/06/17 09:22:28;;;;;;;6.20;4.07;;;;;;;24.85;62.98;99989.72;5031737;28;20214;-81
2022/06/17 09:24:58;;;;;;;5.38;4.15;;;;;;;25.28;63.96;99983.91;5016302;28;20206;-81
2022/06/17 09:27:33;;;;;;;5.72;4.78;;;;;;;25.33;63.85;99989.28;5017953;28;20273;-82
2022/06/17 09:30:04;;;;;;;4.80;4.30;;;;;;;25.50;58.84;99997.66;5034042;28;20182;-81
2022/06/17 09:32:49;;;;;;;4.85;4.15;;;;;;;25.43;63.65;99994.50;5034080;28;20211;-82
2022/06/17 09:35:24;;;;;;;4.50;3.97;;;;;;;25.63;60.95;99985.84;5034767;28;20293;-82
2022/06/17 09:37:58;;;;;;;4.20;3.90;;;;;;;25.65;59.27;99991.84;5018024;28;20190;-82
2022/06/17 09:40:31;;;;;;;4.78;3.80;;;;;;;25.71;58.65;99987.06;5001148;28;20195;-82
2022/06/17 09:43:12;;;;;;;4.00;3.58;;;;;;;25.77;60.95;99994.03;5017744;28;20661;-81
2022/06/17 09:45:47;;;;;;;4.70;4.07;;;;;;;25.60;56.14;99999.38;5038749;28;20239;-82
2022/06/17 09:48:25;;;;;;;4.20;3.90;;;;;;;25.95;57.58;99993.03;5033962;28;20188;-82
2022/06/17 09:51:06;;;;;;;6.10;3.92;;;;;;;26.07;60.41;99993.28;5033731;28;20239;-81
2022/06/17 09:53:37;;;;;;;5.50;3.75;;;;;;;25.85;54.77;100013.31;5017304;28;20225;-81
2022/06/17 09:56:09;;;;;;;4.00;3.70;;;;;;;26.15;52.16;99995.28;5034269;28;20243;-82
2022/06/17 09:59:05;;;;;;;5.88;3.83;;;;;;;26.24;53.85;100003.59;5033873;28;20185;-82
2022/06/17 10:01:32;;;;;;;4.15;3.75;;;;;;;26.18;52.42;99989.16;5063884;28;20268;-82
2022/06/17 10:04:00;;;;;;;4.30;3.88;;;;;;;25.95;54.01;99994.97;5016775;28;20224;-82
2022/06/17 10:06:38;;;;;;;4.10;3.72;;;;;;;26.02;53.99;100004.41;5013287;28;20297;-82
2022/06/17 10:09:43;;;;;;;5.78;3.53;;;;;;;26.45;54.64;100001.94;5030077;28;20211;-82
2022/06/17 10:12:55;;;;;;;3.90;3.47;;;;;;;26.53;49.89;100003.91;5014371;28;20209;-82
2022/06/17 10:15:25;;;;;;;4.18;3.78;;;;;;;26.50;49.84;100003.75;5025055;28;20266;-82
2022/06/17 10:18:31;;;;;;;4.18;3.80;;;;;;;26.07;50.54;99997.97;5033437;28;20185;-82
2022/06/17 10:21:14;;;;;;;4.13;3.75;;;;;;;25.80;51.64;100013.44;5018694;28;20686;-81
2022/06/17 10:23:59;;;;;;;4.90;3.40;;;;;;;26.16;50.92;100007.88;5034262;28;20251;-82
2022/06/17 10:26:49;;;;;;;4.00;3.28;;;;;;;26.42;51.79;100010.81;5033995;28;20244;-81
2022/06/17 10:29:32;;;;;;;4.07;3.67;;;;;;;26.66;52.04;100027.75;5000697;28;20191;-82
2022/06/17 10:32:00;;;;;;;3.92;3.60;;;;;;;26.54;51.07;100008.28;5016477;28;20221;-81
2022/06/17 10:34:41;;;;;;;4.60;3.40;;;;;;;26.46;50.13;100009.03;5000059;28;20217;-82
2022/06/17 10:37:08;;;;;;;5.03;3.60;;;;;;;26.48;48.79;100008.72;5016418;28;20236;-82
2022/06/17 10:39:39;;;;;;;4.25;3.70;;;;;;;26.33;48.13;100007.19;5032560;28;20666;-82
2022/06/17 10:42:07;;;;;;;3.65;3.35;;;;;;;26.60;48.72;99996.00;5033989;28;20279;-83
2022/06/17 10:44:34;;;;;;;7.07;3.78;;;;;;;26.63;50.91;99998.16;5016367;28;20204;-82
2022/06/17 10:47:36;;;;;;;4.07;3.63;;;;;;;26.37;52.06;100001.88;5032634;28;20209;-81
2022/06/17 10:50:10;;;;;;;4.15;3.70;;;;;;;26.25;52.74;100003.28;4996454;28;20200;-81
2022/06/17 10:52:43;;;;;;;4.30;3.53;;;;;;;26.28;50.82;99997.16;5045609;28;20261;-84
2022/06/17 10:55:25;;;;;;;4.25;3.55;;;;;;;26.48;49.44;100001.31;5049013;28;20588;-81
2022/06/17 10:58:11;;;;;;;4.50;3.45;;;;;;;26.77;48.32;100003.53;5033841;28;20203;-84
2022/06/17 11:00:42;;;;;;;4.15;3.50;;;;;;;27.10;49.30;99996.56;5012473;28;20225;-81
2022/06/17 11:03:39;;;;;;;3.78;3.47;;;;;;;27.20;49.53;99997.38;5012621;28;20189;-84
2022/06/17 11:06:09;;;;;;;6.03;3.65;;;;;;;27.49;47.59;99995.66;5010950;28;20298;-81
2022/06/17 11:08:43;;;;;;;3.55;3.22;;;;;;;27.43;48.39;99994.19;5012696;28;20214;-82
2022/06/17 11:14:00;;;;;;;5.07;3.30;;;;;;;27.94;44.40;99987.88;5018241;28;20265;-80
2022/06/17 11:16:28;;;;;;;3.70;3.40;;;;;;;28.22;44.23;99982.84;5032771;28;20221;-80
2022/06/17 11:19:03;;;;;;;4.97;3.45;;;;;;;28.07;43.66;99983.31;5015399;28;20198;-81
2022/06/17 11:21:36;;;;;;;3.25;2.95;;;;;;;28.05;43.07;99985.59;4999362;28;20652;-83
2022/06/17 11:24:04;;;;;;;4.18;3.10;;;;;;;28.23;43.56;99987.19;5015317;28;20645;-81
2022/06/17 11:26:33;;;;;;;3.70;3.35;;;;;;;27.98;42.11;99979.78;5032321;28;20252;-82
2022/06/17 11:29:21;;;;;;;3.75;3.22;;;;;;;27.94;43.84;99987.06;5049352;28;20205;-81
2022/06/17 11:31:49;;;;;;;4.15;3.42;;;;;;;28.12;42.66;99974.91;5049029;28;20194;-83
2022/06/17 11:34:24;;;;;;;3.78;3.15;;;;;;;28.44;44.92;99982.59;5032171;28;20221;-81
2022/06/17 11:37:14;;;;;;;9.52;3.60;;;;;;;28.43;45.37;99982.94;5048381;28;20229;-82
2022/06/17 11:39:42;;;;;;;5.30;3.15;;;;;;;27.78;43.47;99989.50;5015543;28;20222;-82
2022/06/17 11:42:19;;;;;;;3.33;3.05;;;;;;;28.09;45.13;99985.75;5046878;28;20329;-82
2022/06/17 11:45:05;;;;;;;3.42;3.13;;;;;;;27.97;42.79;99981.72;5032619;28;20615;-81
2022/06/17 11:47:33;;;;;;;6.38;3.05;;;;;;;28.10;41.79;99979.91;5035793;28;20229;-82
2022/06/17 11:50:13;;;;;;;5.30;2.85;;;;;;;28.30;40.61;99973.75;5052131;28;20180;-81
2022/06/17 11:52:39;;;;;;;3.83;2.78;;;;;;;28.53;41.18;99979.00;5035962;28;20193;-83
2022/06/17 11:55:06;;;;;;;3.10;2.78;;;;;;;28.29;43.69;99965.78;5047007;28;20684;-83
2022/06/17 11:57:39;;;;;;;5.57;2.92;;;;;;;28.22;42.63;99973.75;5032752;28;20190;-83
2022/06/17 12:00:19;;;;;;;3.00;2.70;;;;;;;27.92;43.14;99964.56;5032143;28;20167;-83
2022/06/17 12:02:58;;;;;;;3.30;3.00;;;;;;;27.76;45.59;99969.78;5032379;28;20194;-83
2022/06/17 12:05:29;;;;;;;3.47;3.05;;;;;;;27.11;43.29;99956.09;5015113;28;20203;-83
2022/06/17 12:08:27;;;;;;;3.63;2.70;;;;;;;27.16;47.16;99959.50;5015489;28;20236;-82
2022/06/17 12:10:56;;;;;;;3.10;2.70;;;;;;;26.64;45.04;99966.00;5033319;28;20186;-82
2022/06/17 12:13:34;;;;;;;6.03;3.40;;;;;;;27.21;43.80;99958.53;5032052;28;21818;-82